Aquadale, North Carolina
Current Conditions -  °F | °C
As of 2:35 AM on Monday 22 Dec 2014 (Local Time) from KVUJ Reporting Station
Heavy Rain Heavy Rain  
Wind Chill: 36°   Ceiling: 700
Heat Index: 40°   Visibility: 5mi
Dew Point: 40°   Wind: 7mph
Humidity: 100%   Direction: 30°NNE
Pressure: 30.19"   Gusts: NA
Location:  35.2152°N, 80.1663°W
Report Text: KVUJ 220735Z AUTO 03006KT 5SM +RA OVC007 05/05 A3019 RMK AO2 P0004 T00460046
Loading
Personal Weather Stations






























Interactive Weather Map New forecast layout! Learn more

10-Day Weather Forecast

Advertisements
Track Severe Weather on mobile